Time;durP1;ratioP1;P1;durP2;ratioP2;P2;SDS_P1;SDS_P2;PMS_P1;PMS_P2;Temp;Humidity;BMP_temperature;BMP_pressure;BME280_temperature;BME280_humidity;BME280_pressure;Samples;Min_cycle;Max_cycle;Signal;HPM_P1;HPM_P2
2022/05/20 00:00:48;;;;;;;;;1.00;1.00;;;;;22.86;42.33;101497.94;5090964;28;44970;-68
2022/05/20 00:03:13;;;;;;;;;1.00;1.00;;;;;22.87;41.97;101489.75;5089300;28;45068;-68
2022/05/20 00:05:39;;;;;;;;;1.67;1.33;;;;;22.72;41.56;101484.47;5072256;28;45303;-68
2022/05/20 00:08:05;;;;;;;;;2.00;2.00;;;;;22.74;41.28;101483.56;5091500;28;45295;-68
2022/05/20 00:10:31;;;;;;;;;0.00;0.00;;;;;22.75;40.93;101479.94;5094676;28;45076;-70
2022/05/20 00:12:59;;;;;;;;;3.00;2.00;;;;;22.38;40.59;101438.59;5095140;28;45130;-68
2022/05/20 00:15:27;;;;;;;;;1.00;1.00;;;;;22.50;40.34;101457.50;5094742;28;44925;-71
2022/05/20 00:17:53;;;;;;;;;1.33;1.33;;;;;22.49;40.28;101462.97;5094701;28;45387;-70
2022/05/20 00:20:20;;;;;;;;;0.00;0.00;;;;;22.64;40.20;101473.69;5094671;28;45099;-68
2022/05/20 00:22:46;;;;;;;;;1.00;1.00;;;;;22.38;40.04;101428.59;5094987;28;45059;-69
2022/05/20 00:27:58;;;;;;;;;0.33;0.33;;;;;22.42;39.93;101437.63;5091930;28;45352;-68
2022/05/20 00:30:24;;;;;;;;;1.67;1.67;;;;;22.34;40.02;101436.81;5092368;28;44914;-68
2022/05/20 00:32:51;;;;;;;;;2.33;1.33;;;;;22.50;40.33;101465.69;5093204;28;44920;-69
2022/05/20 00:35:16;;;;;;;;;3.00;3.00;;;;;22.30;40.39;101443.25;5093055;28;45007;-68
2022/05/20 00:37:41;;;;;;;;;2.00;1.33;;;;;22.36;40.47;101463.13;5091816;28;45299;-67
2022/05/20 00:40:10;;;;;;;;;2.67;2.67;;;;;22.29;40.15;101464.13;5091716;28;45283;-68
2022/05/20 00:42:36;;;;;;;;;1.00;1.00;;;;;22.46;40.12;101474.81;5092151;28;45142;-68
2022/05/20 00:45:04;;;;;;;;;0.00;0.00;;;;;22.47;40.04;101473.88;5091929;28;45124;-70
2022/05/20 00:47:29;;;;;;;;;3.33;0.67;;;;;22.49;39.86;101473.88;5090991;28;45185;-68
2022/05/20 00:49:58;;;;;;;;;1.00;1.00;;;;;22.46;39.84;101461.19;5091256;28;44991;-74
2022/05/20 00:52:28;;;;;;;;;2.00;1.00;;;;;22.52;39.76;101476.56;5073082;28;45476;-74
2022/05/20 00:54:57;;;;;;;;;2.00;0.67;;;;;22.49;39.76;101461.19;5091083;27;45369;-68
2022/05/20 00:57:33;;;;;;;;;3.33;1.33;;;;;22.27;39.68;101438.69;5091259;28;46184;-69
2022/05/20 01:00:10;;;;;;;;;0.00;0.00;;;;;22.50;39.39;101457.50;5091339;28;45022;-70
2022/05/20 01:02:36;;;;;;;;;0.33;0.33;;;;;22.52;39.21;101461.16;5090783;28;45684;-70
2022/05/20 01:05:07;;;;;;;;;1.00;1.00;;;;;22.58;39.28;101468.31;5091904;28;45092;-68
2022/05/20 01:07:39;;;;;;;;;2.00;2.00;;;;;22.61;39.55;101458.28;5091616;28;46053;-67
2022/05/20 01:10:05;;;;;;;;;1.00;1.00;;;;;22.65;39.57;101461.88;5092117;28;44934;-70
2022/05/20 01:12:30;;;;;;;;;0.00;0.00;;;;;22.45;39.33;101418.53;5091896;28;45385;-69
2022/05/20 01:14:56;;;;;;;;;4.00;1.33;;;;;22.59;39.40;101446.53;5072983;28;45335;-73
2022/05/20 01:17:21;;;;;;;;;3.00;1.33;;;;;22.58;39.21;101447.44;5091077;28;45615;-68
2022/05/20 01:19:53;;;;;;;;;3.67;3.67;;;;;22.56;39.18;101434.78;5090870;27;45000;-68
2022/05/20 01:22:40;;;;;;;;;4.00;2.67;;;;;22.15;39.20;101354.47;5091597;28;44990;-68
2022/05/20 01:25:08;;;;;;;;;3.00;1.00;;;;;22.37;39.32;101394.16;5089865;28;45437;-68
2022/05/20 01:27:36;;;;;;;;;1.00;1.00;;;;;22.46;39.18;101398.56;5094166;28;46353;-70
2022/05/20 01:30:03;;;;;;;;;1.00;1.00;;;;;22.26;39.27;101377.91;5092163;28;45432;-68
2022/05/20 01:32:28;;;;;;;;;2.00;2.00;;;;;22.47;39.36;101407.63;5091251;28;45044;-70
2022/05/20 01:34:54;;;;;;;;;1.00;1.00;;;;;22.50;39.11;101407.59;5090639;28;45007;-70
2022/05/20 01:37:19;;;;;;;;;0.67;0.67;;;;;22.26;39.35;101379.72;5071284;28;47444;-69
2022/05/20 01:39:45;;;;;;;;;1.00;1.00;;;;;22.44;39.50;101395.88;5091365;27;45166;-68
2022/05/20 01:42:20;;;;;;;;;1.67;1.67;;;;;22.44;39.16;101398.59;5091290;28;45108;-71
2022/05/20 01:44:57;;;;;;;;;1.00;1.00;;;;;22.42;39.32;101400.44;5085327;28;44864;-70
2022/05/20 01:47:26;;;;;;;;;0.00;0.00;;;;;22.41;39.43;101392.28;5091171;28;45216;-73
2022/05/20 01:49:57;;;;;;;;;1.00;1.00;;;;;22.40;39.28;101387.75;5091120;28;45502;-69
2022/05/20 01:52:33;;;;;;;;;2.00;0.67;;;;;22.22;39.22;101353.44;5091512;28;45233;-70
2022/05/20 01:55:16;;;;;;;;;0.00;0.00;;;;;22.34;39.29;101388.75;5072480;28;45306;-74
2022/05/20 01:58:01;;;;;;;;;0.00;0.00;;;;;22.33;39.41;101383.31;5089765;28;45831;-70
2022/05/20 02:00:28;;;;;;;;;1.33;0.33;;;;;22.26;39.35;101369.75;5090427;28;44932;-69
2022/05/20 02:03:14;;;;;;;;;2.00;0.00;;;;;22.30;39.37;101377.91;5091123;28;45160;-69
2022/05/20 02:05:47;;;;;;;;;2.00;2.00;;;;;22.15;39.54;101362.63;5090818;28;45183;-70
2022/05/20 02:08:35;;;;;;;;;1.00;1.00;;;;;22.18;39.93;101378.91;5090675;28;45374;-69
2022/05/20 02:11:22;;;;;;;;;0.00;0.00;;;;;22.17;40.06;101372.56;5090862;28;45207;-71
2022/05/20 02:14:02;;;;;;;;;2.00;0.67;;;;;21.77;40.12;101307.72;5090635;28;45443;-69
2022/05/20 02:16:32;;;;;;;;;1.00;1.00;;;;;21.97;40.03;101337.41;5090921;28;45234;-69
2022/05/20 02:19:10;;;;;;;;;1.00;1.00;;;;;22.17;40.16;101364.38;5090110;28;45526;-69
2022/05/20 02:21:42;;;;;;;;;2.00;0.00;;;;;22.01;39.88;101338.28;5089692;28;45370;-69
2022/05/20 02:24:10;;;;;;;;;1.00;1.00;;;;;22.16;40.07;101353.53;5089700;28;45040;-73
2022/05/20 02:26:42;;;;;;;;;4.00;1.00;;;;;22.18;40.01;101349.88;5090491;28;44995;-69
2022/05/20 02:29:13;;;;;;;;;0.67;0.67;;;;;21.99;39.91;101330.16;5090409;28;45351;-69
2022/05/20 02:32:00;;;;;;;;;0.67;0.67;;;;;22.14;40.09;101353.56;5090178;27;45174;-70
2022/05/20 02:34:26;;;;;;;;;1.00;1.00;;;;;22.15;40.27;101349.00;5091542;28;45047;-70
2022/05/20 02:36:51;;;;;;;;;1.00;1.00;;;;;21.97;40.22;101322.91;5091670;28;45038;-71
2022/05/20 02:39:17;;;;;;;;;0.00;0.00;;;;;22.18;40.20;101349.88;5090771;28;45255;-69
2022/05/20 02:41:47;;;;;;;;;1.00;1.00;;;;;22.18;39.99;101346.25;5089802;28;45220;-69
2022/05/20 02:44:13;;;;;;;;;2.00;0.00;;;;;22.18;40.17;101349.88;5090504;28;45092;-71
2022/05/20 02:46:42;;;;;;;;;1.00;1.00;;;;;21.96;40.40;101311.16;5090290;28;45280;-70
2022/05/20 02:49:08;;;;;;;;;1.00;1.00;;;;;21.94;40.62;101299.34;5088469;28;45205;-71
2022/05/20 02:51:34;;;;;;;;;1.00;1.00;;;;;22.17;40.32;101344.44;5089837;28;45483;-69
2022/05/20 02:53:59;;;;;;;;;1.00;1.00;;;;;22.15;40.76;101354.47;5089929;28;44983;-69
2022/05/20 02:56:25;;;;;;;;;1.00;1.00;;;;;22.13;40.71;101343.59;5091340;28;45322;-70
2022/05/20 03:04:20;;;;;;;;;1.00;1.00;;;;;22.02;41.31;101334.66;5090186;28;45311;-69
2022/05/20 03:06:51;;;;;;;;;1.00;1.00;;;;;22.01;41.58;101344.63;5089884;28;44927;-71
2022/05/20 03:09:22;;;;;;;;;2.00;2.00;;;;;22.02;41.56;101345.53;5070856;28;46167;-74
2022/05/20 03:11:48;;;;;;;;;1.33;1.00;;;;;21.95;41.68;101333.81;5088733;28;45024;-69
2022/05/20 03:14:16;;;;;;;;;1.00;0.67;;;;;21.96;41.91;101338.34;5089467;28;44938;-69
2022/05/20 03:16:42;;;;;;;;;2.00;2.00;;;;;21.95;42.14;101338.38;5089521;28;45479;-67
2022/05/20 03:19:08;;;;;;;;;6.75;6.75;;;;;21.90;42.48;101343.84;5090475;28;45613;-68
2022/05/20 03:21:35;;;;;;;;;1.00;1.00;;;;;21.71;42.29;101319.59;5091263;28;45503;-69
2022/05/20 03:24:01;;;;;;;;;2.00;1.00;;;;;21.79;42.58;101321.31;5089936;28;45034;-72
2022/05/20 03:26:27;;;;;;;;;1.33;1.33;;;;;21.85;42.82;101343.00;5085178;28;45611;-71
2022/05/20 03:28:53;;;;;;;;;3.67;1.00;;;;;21.85;42.67;101352.06;5091942;28;45774;-72
2022/05/20 03:31:19;;;;;;;;;3.00;3.00;;;;;21.66;42.89;101301.50;5091988;28;45004;-67
2022/05/20 03:33:46;;;;;;;;;2.00;1.33;;;;;21.82;42.58;101332.16;5073649;28;45023;-75
2022/05/20 03:36:12;;;;;;;;;2.67;1.00;;;;;21.70;43.20;101316.88;5092207;28;45024;-71
2022/05/20 03:38:38;;;;;;;;;3.67;1.00;;;;;21.79;43.35;101345.78;5073187;28;46486;-68
2022/05/20 03:41:04;;;;;;;;;2.00;2.00;;;;;21.71;43.43;101327.75;5091530;28;45489;-69
2022/05/20 03:43:29;;;;;;;;;2.00;0.00;;;;;21.68;43.75;101326.88;5092538;27;45812;-69
2022/05/20 03:45:55;;;;;;;;;4.67;2.00;;;;;21.67;43.63;101328.66;5096376;28;44997;-72
2022/05/20 03:48:21;;;;;;;;;10.00;4.00;;;;;21.68;43.90;101322.31;5095747;28;45425;-69
2022/05/20 03:50:47;;;;;;;;;2.67;2.67;;;;;21.68;43.98;101316.88;5094898;28;45112;-72
2022/05/20 03:53:12;;;;;;;;;2.67;2.67;;;;;21.62;43.92;101311.50;5094232;28;45016;-67
2022/05/20 03:55:38;;;;;;;;;1.67;1.33;;;;;21.47;44.05;101288.09;5095227;28;45012;-67
2022/05/20 03:58:03;;;;;;;;;3.00;3.00;;;;;21.54;44.25;101289.81;5093599;28;45270;-68
2022/05/20 04:00:29;;;;;;;;;2.00;2.00;;;;;21.46;44.50;101286.25;5092861;28;45163;-73
2022/05/20 04:02:54;;;;;;;;;6.00;4.00;;;;;21.44;44.49;101295.34;5093118;28;45211;-74
2022/05/20 04:05:20;;;;;;;;;10.00;8.00;;;;;21.35;44.60;101283.66;5092415;28;45438;-68
2022/05/20 04:07:45;;;;;;;;;7.67;4.67;;;;;21.36;44.70;101273.66;5092217;28;45598;-69
2022/05/20 04:10:11;;;;;;;;;6.00;4.00;;;;;21.37;45.15;101299.94;5093014;28;45607;-68
2022/05/20 04:12:41;;;;;;;;;4.67;4.00;;;;;21.36;45.30;101284.53;5092740;28;45356;-73
2022/05/20 04:15:11;;;;;;;;;8.00;8.00;;;;;21.39;45.35;101299.94;5064992;28;45523;-72
2022/05/20 04:17:37;;;;;;;;;5.67;5.00;;;;;21.24;46.10;101282.84;5085188;28;45400;-71
2022/05/20 04:20:04;;;;;;;;;5.33;3.67;;;;;21.30;45.78;101296.38;5090882;28;45372;-71
2022/05/20 04:22:33;;;;;;;;;4.33;4.33;;;;;21.33;45.83;101292.72;5073862;28;45394;-68
2022/05/20 04:24:59;;;;;;;;;5.00;4.00;;;;;21.24;45.72;101281.94;5091761;28;45096;-70
2022/05/20 04:27:27;;;;;;;;;5.00;3.67;;;;;21.38;46.14;101309.88;5092224;28;45268;-72
2022/05/20 04:29:53;;;;;;;;;3.67;3.33;;;;;21.38;46.08;101318.03;5091312;28;45308;-69
2022/05/20 04:32:18;;;;;;;;;3.67;3.00;;;;;21.11;46.12;101267.56;5091741;28;45072;-69
2022/05/20 04:34:43;;;;;;;;;4.67;3.00;;;;;21.46;45.62;101318.88;5092041;28;45097;-70
2022/05/20 04:37:10;;;;;;;;;3.00;1.00;;;;;21.19;46.07;101275.66;5091470;28;44974;-69
2022/05/20 04:39:36;;;;;;;;;2.67;1.00;;;;;21.44;45.98;101311.66;5093017;28;45197;-70
2022/05/20 04:47:31;;;;;;;;;3.00;2.67;;;;;21.47;46.17;101317.06;5091649;28;45561;-71
2022/05/20 04:49:56;;;;;;;;;5.00;3.33;;;;;21.56;46.02;101327.88;5091940;28;45362;-75
2022/05/20 04:52:23;;;;;;;;;3.00;3.00;;;;;21.50;45.96;101306.22;5091468;28;45310;-70
2022/05/20 04:54:52;;;;;;;;;3.33;3.33;;;;;21.56;45.95;101307.94;5092000;27;45395;-70
2022/05/20 04:57:45;;;;;;;;;3.00;3.00;;;;;21.54;45.86;101317.00;5090267;28;46755;-71
2022/05/20 05:00:26;;;;;;;;;2.67;2.67;;;;;21.64;46.09;101308.78;5074975;28;45456;-71
2022/05/20 05:02:52;;;;;;;;;3.00;2.00;;;;;21.68;45.66;101306.00;5091740;28;45175;-70
2022/05/20 05:05:20;;;;;;;;;7.00;5.00;;;;;21.71;45.80;101316.84;5090583;28;45252;-70
2022/05/20 05:07:49;;;;;;;;;3.00;2.33;;;;;21.78;45.88;101324.94;5084788;28;46037;-70
2022/05/20 05:10:18;;;;;;;;;4.00;4.00;;;;;21.85;46.28;101333.00;5091314;28;44977;-71
2022/05/20 05:12:43;;;;;;;;;4.00;4.00;;;;;21.90;46.19;101344.75;5090476;28;45088;-70
2022/05/20 05:15:11;;;;;;;;;7.00;3.67;;;;;21.53;46.22;101298.91;5090924;28;45166;-70
2022/05/20 05:20:23;;;;;;;;;5.00;4.00;;;;;21.71;46.13;101295.09;5091319;28;45802;-70
2022/05/20 05:22:50;;;;;;;;;6.00;4.33;;;;;21.96;45.97;101337.44;5092064;28;45160;-70
2022/05/20 05:25:17;;;;;;;;;3.67;3.67;;;;;21.95;46.33;101339.25;5091227;28;45257;-73
2022/05/20 05:27:42;;;;;;;;;4.67;3.00;;;;;21.58;46.24;101260.81;5075641;28;46878;-74
2022/05/20 05:30:11;;;;;;;;;8.00;6.00;;;;;22.01;46.46;101330.09;5094154;28;45123;-72
2022/05/20 05:32:37;;;;;;;;;6.67;5.00;;;;;21.87;46.78;101320.28;5094164;28;45106;-71
2022/05/20 05:35:05;;;;;;;;;6.67;5.00;;;;;21.60;47.38;101272.56;5094159;28;45197;-72
2022/05/20 05:37:33;;;;;;;;;5.00;3.00;;;;;21.63;46.97;101267.09;5092724;28;45643;-73
2022/05/20 05:39:59;;;;;;;;;4.00;4.00;;;;;21.85;47.51;101302.19;5075187;28;44970;-70
2022/05/20 05:42:24;;;;;;;;;5.00;4.00;;;;;21.87;47.31;101311.25;5089554;28;45034;-72
2022/05/20 05:44:52;;;;;;;;;5.00;5.00;;;;;21.86;47.47;101307.63;5093628;28;45023;-72
2022/05/20 05:47:17;;;;;;;;;3.00;3.00;;;;;21.62;47.74;101283.41;5093358;28;45409;-71
2022/05/20 05:49:43;;;;;;;;;3.67;3.67;;;;;21.58;47.66;101281.63;5093232;28;44986;-71
2022/05/20 05:52:08;;;;;;;;;3.00;3.00;;;;;21.75;48.12;101298.69;5094038;28;45429;-71
2022/05/20 05:54:35;;;;;;;;;9.67;6.33;;;;;21.74;48.09;101291.44;5092247;28;44883;-73
2022/05/20 05:57:00;;;;;;;;;7.33;7.33;;;;;21.56;48.19;101248.13;5088057;28;45397;-72
2022/05/20 05:59:26;;;;;;;;;6.67;5.33;;;;;21.65;48.89;101242.59;5090553;28;44954;-69
2022/05/20 06:02:00;;;;;;;;;6.67;5.00;;;;;21.82;49.23;101262.31;5089254;28;45221;-70
2022/05/20 06:04:26;;;;;;;;;5.67;5.67;;;;;21.72;49.65;101288.72;5093297;28;45028;-70
2022/05/20 06:06:52;;;;;;;;;6.00;5.00;;;;;21.60;50.00;101286.16;5090911;27;45519;-70
2022/05/20 06:09:17;;;;;;;;;10.00;5.67;;;;;21.58;50.52;101311.53;5091577;28;44913;-69
2022/05/20 06:11:43;;;;;;;;;7.00;5.00;;;;;21.60;50.18;101307.91;5091295;28;45073;-69
2022/05/20 06:14:08;;;;;;;;;6.33;3.00;;;;;21.50;50.64;101303.50;5092527;28;45115;-69
2022/05/20 06:16:34;;;;;;;;;7.00;5.33;;;;;21.56;51.36;101330.59;5088097;28;45223;-75
2022/05/20 06:19:00;;;;;;;;;5.00;4.33;;;;;21.11;51.97;101233.13;5091175;28;45049;-71
2022/05/20 06:21:26;;;;;;;;;5.67;5.67;;;;;21.53;52.70;101308.88;5082017;28;45424;-73
2022/05/20 06:23:52;;;;;;;;;9.67;6.00;;;;;21.51;52.77;101291.69;5082322;28;45362;-70
2022/05/20 06:26:17;;;;;;;;;5.33;5.33;;;;;21.58;53.17;101276.19;5074632;28;45975;-72
2022/05/20 06:28:43;;;;;;;;;11.00;6.00;;;;;21.50;53.11;101236.41;5074226;28;45388;-69
2022/05/20 06:31:09;;;;;;;;;5.67;5.00;;;;;21.59;52.71;101210.03;5074635;28;45454;-70
2022/05/20 06:33:34;;;;;;;;;3.67;3.67;;;;;21.78;53.00;101205.25;5074695;28;45596;-70
2022/05/20 06:41:28;;;;;;;;;9.33;6.67;;;;;21.70;53.88;101210.81;5074167;28;45409;-70
2022/05/20 06:43:53;;;;;;;;;10.33;6.67;;;;;21.46;53.78;101217.38;5074335;28;45545;-69
2022/05/20 06:46:18;;;;;;;;;6.00;5.33;;;;;21.61;53.69;101254.41;5074130;28;46015;-70
2022/05/20 06:48:47;;;;;;;;;14.00;10.33;;;;;21.57;54.53;101255.38;5073887;28;45463;-68
2022/05/20 06:51:19;;;;;;;;;5.67;5.33;;;;;21.56;53.88;101246.31;5073944;28;45310;-69
2022/05/20 06:53:45;;;;;;;;;7.00;6.00;;;;;21.60;53.86;101231.78;5074299;28;45475;-72
2022/05/20 06:56:11;;;;;;;;;3.67;3.00;;;;;21.61;53.40;101170.13;5074742;28;45360;-70
2022/05/20 06:58:37;;;;;;;;;6.33;6.33;;;;;21.43;54.06;101104.16;5074882;28;45329;-72
2022/05/20 07:01:04;;;;;;;;;7.00;6.00;;;;;21.54;54.73;101066.88;5074611;28;45414;-72
2022/05/20 07:03:29;;;;;;;;;5.00;3.67;;;;;21.34;55.17;100979.25;5074393;28;45326;-70
2022/05/20 07:05:55;;;;;;;;;6.67;5.67;;;;;21.57;54.96;101027.88;5073570;28;45419;-71
2022/05/20 07:08:21;;;;;;;;;11.67;11.67;;;;;21.58;55.82;101004.31;5073550;28;45560;-70
2022/05/20 07:10:46;;;;;;;;;5.67;4.67;;;;;21.87;54.87;101045.53;5074069;28;45477;-69
2022/05/20 07:13:12;;;;;;;;;4.67;4.67;;;;;21.84;55.17;101042.88;5074078;28;45271;-70
2022/05/20 07:15:37;;;;;;;;;12.00;9.00;;;;;21.90;56.20;101034.63;5073413;28;45632;-68
2022/05/20 07:18:03;;;;;;;;;8.67;7.00;;;;;21.89;56.12;101049.16;5073597;28;45373;-70
2022/05/20 07:20:28;;;;;;;;;10.33;9.67;;;;;21.78;55.60;101036.63;5077540;28;45605;-69
2022/05/20 07:22:53;;;;;;;;;10.33;8.67;;;;;21.98;55.42;101042.66;5077270;28;45232;-70
2022/05/20 07:25:19;;;;;;;;;9.33;7.00;;;;;21.95;55.39;101039.09;5058703;28;45905;-70
2022/05/20 07:27:45;;;;;;;;;13.00;6.00;;;;;22.08;55.78;101057.03;5076755;28;45364;-72
2022/05/20 07:30:13;;;;;;;;;10.67;10.67;;;;;22.21;56.29;101074.94;5076930;28;45444;-70
2022/05/20 07:32:39;;;;;;;;;12.67;8.00;;;;;22.21;55.47;101083.09;5077162;28;45497;-68
2022/05/20 07:35:04;;;;;;;;;7.00;6.67;;;;;22.17;55.80;101065.00;5076763;28;46291;-71
2022/05/20 07:37:30;;;;;;;;;11.33;8.67;;;;;22.05;56.16;101047.06;5076481;28;45316;-69
2022/05/20 07:39:56;;;;;;;;;20.00;17.00;;;;;22.00;56.72;101069.84;5076820;28;45990;-71
2022/05/20 07:42:22;;;;;;;;;9.33;9.33;;;;;22.00;56.24;101086.19;5076674;28;45480;-69
2022/05/20 07:44:48;;;;;;;;;9.67;6.67;;;;;22.18;55.75;101113.09;5057742;28;48038;-71
2022/05/20 07:47:14;;;;;;;;;10.00;8.67;;;;;22.07;55.99;101113.25;5076013;28;45504;-69
2022/05/20 07:49:39;;;;;;;;;10.00;10.00;;;;;22.03;55.83;101143.28;5076366;28;45380;-70
2022/05/20 07:52:09;;;;;;;;;11.33;9.67;;;;;22.00;56.68;101165.97;5076192;28;45279;-70
2022/05/20 07:54:40;;;;;;;;;10.67;9.67;;;;;21.98;56.59;101189.59;5076196;28;45341;-69
2022/05/20 07:57:12;;;;;;;;;11.00;11.00;;;;;22.05;57.10;101247.53;5076040;28;45372;-72
2022/05/20 07:59:44;;;;;;;;;8.00;8.00;;;;;21.98;57.42;101241.28;5076227;28;45439;-71
2022/05/20 08:02:09;;;;;;;;;14.67;10.00;;;;;22.06;58.32;101181.31;5076645;28;45338;-68
2022/05/20 08:04:53;;;;;;;;;12.67;11.00;;;;;22.05;58.81;101212.16;5076310;28;46078;-70
2022/05/20 08:07:34;;;;;;;;;9.00;7.00;;;;;21.74;58.58;101114.66;5073057;28;45532;-69
2022/05/20 08:10:01;;;;;;;;;10.00;8.67;;;;;22.07;58.76;101172.22;5077135;28;45514;-71
2022/05/20 08:12:26;;;;;;;;;10.67;8.33;;;;;21.93;58.71;101153.38;5077302;28;45727;-70
2022/05/20 08:14:52;;;;;;;;;14.00;10.33;;;;;22.05;58.28;101147.75;5076138;28;46508;-69
2022/05/20 08:17:20;;;;;;;;;11.33;9.33;;;;;22.00;58.29;101127.88;5075947;28;45309;-69
2022/05/20 08:19:47;;;;;;;;;12.33;9.33;;;;;22.09;58.11;101145.88;5076283;28;45482;-70
2022/05/20 08:22:14;;;;;;;;;10.33;9.67;;;;;21.99;58.23;101134.25;5077540;28;45430;-69
2022/05/20 08:24:39;;;;;;;;;20.67;16.00;;;;;21.79;59.01;101139.97;5077018;28;47116;-69
2022/05/20 08:27:05;;;;;;;;;6.67;6.67;;;;;21.51;59.34;101075.09;5075805;28;45453;-70
2022/05/20 08:29:34;;;;;;;;;10.33;8.33;;;;;21.76;59.39;101076.56;5075695;28;45409;-70
2022/05/20 08:31:59;;;;;;;;;12.00;9.67;;;;;21.89;59.88;101129.84;5076977;28;45588;-73
2022/05/20 08:34:24;;;;;;;;;10.00;9.33;;;;;21.94;59.64;101143.38;5057306;28;45382;-71
2022/05/20 08:36:50;;;;;;;;;13.33;10.33;;;;;21.61;59.58;101097.59;5075919;28;45412;-69
2022/05/20 08:39:15;;;;;;;;;57.00;44.75;;;;;21.86;59.71;101106.31;5075960;28;45442;-70
2022/05/20 08:41:49;;;;;;;;;16.67;13.67;;;;;21.92;59.74;101173.34;5076092;28;45359;-69
2022/05/20 08:44:19;;;;;;;;;14.00;13.33;;;;;21.97;60.98;101228.59;5075271;28;46075;-71
2022/05/20 08:46:46;;;;;;;;;15.00;13.33;;;;;21.76;60.83;101270.53;5075557;28;45584;-70
2022/05/20 08:49:21;;;;;;;;;12.67;11.33;;;;;21.77;60.98;101323.16;5075774;28;45399;-70
2022/05/20 08:51:52;;;;;;;;;21.50;18.75;;;;;21.64;61.82;101308.78;5076002;28;45408;-70
2022/05/20 08:54:18;;;;;;;;;24.00;14.00;;;;;21.41;62.36;101182.09;5075514;28;46278;-69
2022/05/20 08:56:44;;;;;;;;;17.67;15.67;;;;;21.70;62.41;101246.16;5057073;28;45502;-70
2022/05/20 08:59:15;;;;;;;;;56.25;45.00;;;;;21.75;63.44;101208.03;5075635;28;45607;-69
2022/05/20 09:01:44;;;;;;;;;37.75;32.75;;;;;21.77;64.20;101160.84;5075913;28;45373;-72
2022/05/20 09:04:13;;;;;;;;;21.25;20.50;;;;;21.86;64.69;101173.41;5075312;28;46105;-69
2022/05/20 09:07:00;;;;;;;;;25.50;21.25;;;;;21.89;64.39;101157.06;5075960;28;45340;-70
2022/05/20 09:09:40;;;;;;;;;16.33;11.67;;;;;22.08;63.01;101187.63;5075491;28;45351;-73
2022/05/20 09:12:06;;;;;;;;;13.25;9.00;;;;;22.20;62.69;101173.84;5076373;28;45730;-71
2022/05/20 09:17:23;;;;;;;;;21.00;18.50;;;;;22.32;61.73;101141.94;5075338;28;45406;-71
2022/05/20 09:20:05;;;;;;;;;22.75;21.00;;;;;22.44;61.76;101158.09;5075020;28;45480;-70
2022/05/20 09:22:39;;;;;;;;;19.25;13.75;;;;;22.43;61.28;101151.72;5075192;28;45290;-70
2022/05/20 09:25:11;;;;;;;;;51.00;41.25;;;;;22.52;61.53;101158.88;5074963;28;45745;-73
2022/05/20 09:27:39;;;;;;;;;22.25;19.75;;;;;22.61;60.43;101141.47;5074967;28;45421;-73
2022/05/20 09:30:13;;;;;;;;;22.00;15.33;;;;;22.71;61.04;101126.75;5068761;28;45430;-69
2022/05/20 09:32:43;;;;;;;;;24.75;21.25;;;;;22.68;60.39;101093.22;5075411;28;45452;-71
2022/05/20 09:35:22;;;;;;;;;22.00;18.50;;;;;22.85;60.01;101145.59;5074531;28;45482;-72
2022/05/20 09:37:52;;;;;;;;;19.00;15.00;;;;;22.83;59.83;101188.28;5074553;28;45307;-70
2022/05/20 09:40:33;;;;;;;;;24.00;18.33;;;;;22.69;60.08;101302.03;5074504;28;45520;-71
2022/05/20 09:43:06;;;;;;;;;18.00;17.33;;;;;22.29;61.15;101354.31;5074327;28;45433;-72
2022/05/20 09:45:47;;;;;;;;;19.00;15.00;;;;;22.03;62.07;101195.84;5074439;28;47000;-71
2022/05/20 09:48:21;;;;;;;;;27.25;21.75;;;;;22.19;62.95;101033.25;5068734;28;45582;-71
2022/05/20 09:51:04;;;;;;;;;23.25;17.75;;;;;22.06;63.34;101029.84;5074781;28;45297;-69
2022/05/20 09:53:36;;;;;;;;;30.50;23.00;;;;;22.24;64.51;101088.50;5074802;28;45390;-70
2022/05/20 09:56:18;;;;;;;;;23.67;17.33;;;;;22.46;64.05;101104.50;5075035;28;45594;-70
2022/05/20 09:58:59;;;;;;;;;18.33;18.33;;;;;22.63;62.62;101082.41;5074822;28;45489;-72
2022/05/20 10:01:28;;;;;;;;;20.75;17.75;;;;;22.61;62.75;101025.25;5075563;28;45583;-71
2022/05/20 10:03:59;;;;;;;;;23.50;22.00;;;;;23.04;63.17;101044.41;5057193;28;45554;-71
2022/05/20 10:06:39;;;;;;;;;21.33;18.00;;;;;23.07;62.64;101045.28;5074310;28;45560;-73
2022/05/20 10:09:26;;;;;;;;;23.25;20.50;;;;;23.22;61.97;101043.16;5074142;28;45275;-71
2022/05/20 10:12:17;;;;;;;;;24.00;22.75;;;;;23.25;61.44;101059.47;5074317;28;45531;-73
2022/05/20 10:14:57;;;;;;;;;21.00;20.25;;;;;23.42;60.38;101057.25;5063735;28;45611;-73
2022/05/20 10:17:44;;;;;;;;;22.75;20.00;;;;;23.36;60.14;101071.94;5074159;28;45993;-71
2022/05/20 10:20:20;;;;;;;;;27.25;21.25;;;;;23.13;60.78;101055.13;5073807;28;45500;-73
2022/05/20 10:22:45;;;;;;;;;20.25;16.25;;;;;23.13;61.37;101083.31;5073587;28;46095;-76
2022/05/20 10:25:41;;;;;;;;;27.00;22.75;;;;;23.17;60.69;101112.28;5074373;28;45300;-72
2022/05/20 10:28:12;;;;;;;;;37.50;27.00;;;;;23.18;62.01;101126.81;5073963;28;45680;-76
2022/05/20 10:33:33;;;;;;;;;27.75;20.50;;;;;23.29;61.73;101110.25;5073781;28;45380;-74
2022/05/20 10:36:52;;;;;;;;;24.75;22.25;;;;;23.28;61.04;101083.91;5074106;28;45325;-71
2022/05/20 10:40:10;;;;;;;;;26.50;23.75;;;;;23.24;61.23;101074.91;5010931;28;45511;-69
2022/05/20 10:43:09;;;;;;;;;23.75;23.75;;;;;23.36;61.10;101080.09;5015353;28;45618;-71
2022/05/20 10:48:57;;;;;;;;;27.75;21.75;;;;;23.64;60.14;101051.31;5069565;28;45473;-70
2022/05/20 10:51:47;;;;;;;;;23.75;21.75;;;;;23.79;59.75;101050.97;5073178;28;45527;-72
2022/05/20 10:54:35;;;;;;;;;28.25;25.25;;;;;23.41;59.88;100970.03;5072817;28;45485;-70
2022/05/20 10:57:33;;;;;;;;;29.00;26.25;;;;;23.85;59.24;101058.13;5073148;28;45462;-72
2022/05/20 11:00:15;;;;;;;;;24.00;24.00;;;;;23.77;59.30;101033.72;5068567;28;45511;-72
2022/05/20 11:02:53;;;;;;;;;29.50;28.50;;;;;24.03;59.11;101068.59;5072520;28;45709;-71
2022/05/20 11:05:43;;;;;;;;;36.50;32.25;;;;;24.05;59.60;101046.72;5073449;28;45470;-71
2022/05/20 11:08:31;;;;;;;;;35.75;32.50;;;;;24.23;59.25;101075.41;5073285;28;45462;-72
2022/05/20 11:11:22;;;;;;;;;32.25;29.50;;;;;24.14;59.16;101042.84;5073169;28;45308;-72
2022/05/20 11:13:53;;;;;;;;;21.00;20.00;;;;;24.38;58.33;101091.38;5072659;28;46253;-71
2022/05/20 11:16:48;;;;;;;;;28.50;24.50;;;;;24.33;58.57;101074.22;5072915;28;45504;-73
2022/05/20 11:19:47;;;;;;;;;27.50;22.75;;;;;24.46;58.95;101113.06;5069896;28;45859;-72
2022/05/20 11:22:25;;;;;;;;;28.50;26.75;;;;;24.15;59.31;101071.97;5073556;28;45501;-73
2022/05/20 11:25:12;;;;;;;;;24.50;24.50;;;;;24.47;59.43;101136.72;5073148;28;46246;-70
2022/05/20 11:27:53;;;;;;;;;31.50;27.25;;;;;24.44;59.57;101142.25;5073874;28;45416;-72
2022/05/20 11:30:30;;;;;;;;;30.25;30.25;;;;;24.28;59.82;101111.69;5074744;28;45453;-71
2022/05/20 11:33:15;;;;;;;;;27.00;25.00;;;;;24.51;59.92;101126.59;5074704;28;45351;-70
2022/05/20 11:36:05;;;;;;;;;25.00;23.25;;;;;24.49;59.85;101093.84;5074023;28;45543;-70
2022/05/20 11:38:43;;;;;;;;;32.50;30.50;;;;;24.81;59.68;101114.91;5054783;28;45492;-72
2022/05/20 11:41:17;;;;;;;;;32.75;29.00;;;;;25.00;59.74;101128.06;5072539;28;45577;-71
2022/05/20 11:44:18;;;;;;;;;25.50;24.75;;;;;25.04;58.75;101096.94;5072687;28;45487;-70
2022/05/20 11:46:43;;;;;;;;;26.25;22.75;;;;;25.38;58.36;101115.16;5072584;28;45405;-71
2022/05/20 11:49:14;;;;;;;;;25.50;22.00;;;;;25.60;58.55;101100.84;5072178;28;45517;-70
2022/05/20 11:51:52;;;;;;;;;28.75;26.75;;;;;25.75;57.34;101104.00;5072592;28;45586;-73
2022/05/20 11:54:17;;;;;;;;;23.75;23.75;;;;;25.90;57.53;101099.91;5072984;28;45498;-70
2022/05/20 11:56:57;;;;;;;;;21.00;17.33;;;;;25.93;55.62;101071.50;5072412;28;46290;-72
2022/05/20 11:59:32;;;;;;;;;31.50;21.25;;;;;26.24;54.93;101084.22;5072679;28;45482;-70
2022/05/20 12:02:01;;;;;;;;;25.33;22.00;;;;;26.40;55.36;101062.66;5072959;28;45545;-71
2022/05/20 12:04:30;;;;;;;;;27.00;24.75;;;;;26.42;53.33;101058.94;5073414;28;45470;-73
2022/05/20 12:07:04;;;;;;;;;16.67;16.00;;;;;26.29;53.29;101030.19;5076106;28;45483;-72